Time;durP1;ratioP1;P1;durP2;ratioP2;P2;SDS_P1;SDS_P2;PMS_P1;PMS_P2;Temp;Humidity;BMP_temperature;BMP_pressure;BME280_temperature;BME280_humidity;BME280_pressure;Samples;Min_cycle;Max_cycle;Signal;HPM_P1;HPM_P2
2022/03/18 05:02:01;;;;;;;5.10;4.28;;;0.60;99.90;;;;;;5213689;23;20319;-70
2022/03/18 05:04:28;;;;;;;3.28;3.17;;;0.50;99.90;;;;;;4952979;28;20202;-70
2022/03/18 05:06:54;;;;;;;5.65;4.35;;;0.50;99.90;;;;;;4953263;28;20213;-69
2022/03/18 05:09:23;;;;;;;7.28;3.95;;;0.50;99.90;;;;;;4953046;28;20213;-70
2022/03/18 05:11:49;;;;;;;8.80;3.78;;;0.50;99.90;;;;;;4939728;28;20272;-69
2022/03/18 05:14:16;;;;;;;5.82;3.92;;;0.50;99.90;;;;;;4933926;29;20229;-68
2022/03/18 05:16:43;;;;;;;5.55;4.55;;;0.50;99.90;;;;;;4934087;29;20265;-68
2022/03/18 05:19:11;;;;;;;5.55;3.42;;;0.50;99.90;;;;;;4934388;29;20210;-69
2022/03/18 05:21:39;;;;;;;7.03;3.92;;;0.50;99.90;;;;;;4933061;29;20233;-68
2022/03/18 05:24:07;;;;;;;5.40;4.93;;;0.50;99.90;;;;;;4934107;29;20305;-68
2022/03/18 05:26:34;;;;;;;9.75;4.80;;;0.50;99.90;;;;;;4933708;29;20237;-68
2022/03/18 05:29:01;;;;;;;7.68;4.20;;;0.50;99.90;;;;;;4932936;29;20292;-68
2022/03/18 05:31:28;;;;;;;7.20;4.15;;;0.50;99.90;;;;;;4932989;29;20320;-68
2022/03/18 05:33:55;;;;;;;10.02;4.45;;;0.50;99.90;;;;;;4933954;29;20561;-68
2022/03/18 05:36:23;;;;;;;6.78;3.40;;;0.50;99.90;;;;;;4933264;29;20313;-68
2022/03/18 05:38:50;;;;;;;8.93;3.47;;;0.50;99.90;;;;;;4933664;29;20546;-68
2022/03/18 05:41:16;;;;;;;4.18;3.88;;;0.50;99.90;;;;;;4932984;29;20230;-68
2022/03/18 05:43:43;;;;;;;8.65;4.15;;;0.50;99.90;;;;;;4933245;29;20667;-68
2022/03/18 05:46:11;;;;;;;3.90;3.47;;;0.50;99.90;;;;;;4933618;29;20641;-68
2022/03/18 05:48:38;;;;;;;10.52;3.42;;;0.50;99.90;;;;;;4933440;29;20214;-68
2022/03/18 05:51:04;;;;;;;7.55;3.38;;;0.50;99.90;;;;;;4928680;29;20574;-68
2022/03/18 05:53:32;;;;;;;7.93;3.17;;;0.60;99.90;;;;;;4933852;29;20644;-69
2022/03/18 05:58:44;;;;;;;8.02;4.03;;;0.60;99.90;;;;;;4933296;29;20345;-68
2022/03/18 06:01:11;;;;;;;9.80;3.80;;;0.70;99.90;;;;;;4933266;29;20241;-67
2022/03/18 06:03:38;;;;;;;4.93;3.40;;;0.70;99.90;;;;;;4933548;29;20265;-68
2022/03/18 06:06:05;;;;;;;5.82;4.45;;;0.70;99.90;;;;;;4932908;29;20268;-68
2022/03/18 06:14:03;;;;;;;6.03;4.88;;;0.80;99.90;;;;;;4933046;29;20201;-68
2022/03/18 06:16:30;;;;;;;6.03;3.30;;;0.80;99.90;;;;;;4933294;29;20279;-68
2022/03/18 06:18:56;;;;;;;7.45;4.00;;;0.90;99.90;;;;;;4933283;29;20206;-69
2022/03/18 06:21:23;;;;;;;7.00;4.10;;;0.90;99.90;;;;;;4931916;29;20234;-68
2022/03/18 06:23:51;;;;;;;5.43;4.30;;;0.90;99.90;;;;;;4933239;29;20206;-68
2022/03/18 06:26:18;;;;;;;4.45;4.15;;;1.00;99.90;;;;;;4933081;29;20206;-69
2022/03/18 06:28:44;;;;;;;6.28;4.13;;;1.10;99.90;;;;;;4932940;29;20206;-68
2022/03/18 06:31:11;;;;;;;8.82;5.10;;;1.10;99.90;;;;;;4933140;29;20368;-69
2022/03/18 06:33:43;;;;;;;5.80;4.38;;;1.10;99.90;;;;;;4933121;29;20221;-69
2022/03/18 06:36:10;;;;;;;7.78;4.05;;;1.20;99.90;;;;;;4933023;29;20300;-69
2022/03/18 06:38:36;;;;;;;6.05;4.40;;;1.20;99.90;;;;;;4933825;29;20206;-67
2022/03/18 06:41:04;;;;;;;9.07;5.47;;;1.30;99.90;;;;;;4933885;29;20768;-68
2022/03/18 06:43:31;;;;;;;72.70;38.95;;;1.40;99.90;;;;;;4936695;29;20206;-67
2022/03/18 06:45:58;;;;;;;47.72;25.70;;;1.50;99.90;;;;;;4936197;29;20626;-68
2022/03/18 06:48:25;;;;;;;18.38;9.30;;;1.50;99.90;;;;;;4936466;29;20217;-67
2022/03/18 06:50:51;;;;;;;11.45;6.45;;;1.60;99.90;;;;;;4935877;29;20229;-68
2022/03/18 06:53:18;;;;;;;7.82;5.13;;;1.60;99.90;;;;;;4936569;29;20217;-68
2022/03/18 06:55:45;;;;;;;7.90;4.90;;;1.70;99.90;;;;;;4936378;29;20594;-68
2022/03/18 06:58:13;;;;;;;8.10;5.80;;;1.80;99.90;;;;;;4936620;29;20210;-68
2022/03/18 07:00:39;;;;;;;10.95;5.65;;;1.80;99.90;;;;;;4935329;29;20256;-67
2022/03/18 07:03:06;;;;;;;6.55;5.47;;;1.90;99.90;;;;;;4936707;29;20256;-69
2022/03/18 07:05:33;;;;;;;16.02;10.35;;;1.90;99.90;;;;;;4936084;29;20513;-68
2022/03/18 07:08:00;;;;;;;6.30;5.55;;;2.00;99.90;;;;;;4936338;29;20218;-68
2022/03/18 07:10:27;;;;;;;7.07;4.53;;;2.00;99.90;;;;;;4935574;29;20210;-69
2022/03/18 07:12:54;;;;;;;5.35;4.68;;;2.10;99.90;;;;;;4932994;29;20217;-68
2022/03/18 07:15:22;;;;;;;11.68;8.30;;;2.20;99.90;;;;;;4935754;29;20702;-68
2022/03/18 07:17:59;;;;;;;18.30;9.82;;;2.30;99.90;;;;;;4936347;29;20205;-68
2022/03/18 07:20:26;;;;;;;11.23;8.18;;;2.30;99.90;;;;;;4935515;29;20301;-69
2022/03/18 07:23:03;;;;;;;12.15;6.93;;;2.40;99.90;;;;;;4936322;29;20213;-69
2022/03/18 07:25:30;;;;;;;8.02;6.90;;;2.50;99.90;;;;;;4935713;29;20224;-68
2022/03/18 07:27:57;;;;;;;7.15;5.03;;;2.60;99.90;;;;;;4935978;29;20587;-69
2022/03/18 07:30:25;;;;;;;12.13;6.68;;;2.70;99.90;;;;;;4934655;29;20724;-68
2022/03/18 07:32:52;;;;;;;5.75;5.13;;;2.80;99.90;;;;;;4935664;29;20679;-69
2022/03/18 07:35:19;;;;;;;11.70;4.70;;;2.90;99.90;;;;;;4935030;29;20213;-69
2022/03/18 07:37:48;;;;;;;12.82;7.60;;;2.90;99.90;;;;;;4935642;29;20214;-68
2022/03/18 07:40:14;;;;;;;9.95;7.85;;;3.00;99.90;;;;;;4934798;29;20316;-69
2022/03/18 07:42:42;;;;;;;6.70;5.75;;;3.10;99.90;;;;;;4935598;29;20269;-68
2022/03/18 07:45:10;;;;;;;8.98;5.50;;;3.20;99.90;;;;;;4935478;29;20301;-68
2022/03/18 07:47:39;;;;;;;6.03;4.90;;;3.30;99.90;;;;;;4935554;29;20726;-68
2022/03/18 07:50:07;;;;;;;6.93;5.22;;;3.30;99.90;;;;;;4933956;29;20209;-69
2022/03/18 07:52:33;;;;;;;8.82;4.80;;;3.40;99.90;;;;;;4935066;29;20709;-68
2022/03/18 07:55:00;;;;;;;8.20;6.03;;;3.50;99.90;;;;;;4935037;29;20210;-69
2022/03/18 07:57:27;;;;;;;9.27;5.03;;;3.60;99.90;;;;;;4935167;29;20233;-69
2022/03/18 07:59:54;;;;;;;6.07;4.82;;;3.70;99.90;;;;;;4934229;29;20210;-69
2022/03/18 08:02:20;;;;;;;13.18;6.03;;;3.80;99.90;;;;;;4934814;29;20647;-68
2022/03/18 08:04:51;;;;;;;13.13;6.03;;;3.90;99.90;;;;;;4934586;29;20565;-69
2022/03/18 08:07:18;;;;;;;8.50;5.10;;;4.00;99.90;;;;;;4935411;29;20301;-68
2022/03/18 08:09:45;;;;;;;4.82;4.50;;;4.10;99.90;;;;;;4934211;29;20213;-69
2022/03/18 08:12:12;;;;;;;7.45;4.47;;;4.20;99.90;;;;;;4935427;29;20238;-69
2022/03/18 08:14:39;;;;;;;13.82;7.60;;;4.30;99.90;;;;;;4934843;29;20301;-69
2022/03/18 08:17:06;;;;;;;12.57;11.25;;;4.50;99.90;;;;;;4935186;29;20241;-70
2022/03/18 08:19:34;;;;;;;8.70;7.13;;;4.70;99.90;;;;;;4934102;29;20288;-69
2022/03/18 08:22:04;;;;;;;5.93;5.28;;;4.90;99.90;;;;;;4934764;29;20309;-68
2022/03/18 08:24:31;;;;;;;9.82;5.05;;;5.10;99.90;;;;;;4934654;29;20706;-68
2022/03/18 08:26:58;;;;;;;9.15;5.70;;;5.30;99.90;;;;;;4935593;29;20229;-68
2022/03/18 08:29:25;;;;;;;11.18;9.35;;;5.40;99.90;;;;;;4935986;29;20222;-67
2022/03/18 08:31:52;;;;;;;12.80;7.90;;;5.60;99.90;;;;;;4936138;29;20233;-69
2022/03/18 08:34:20;;;;;;;7.22;4.90;;;5.70;99.90;;;;;;4935033;29;20225;-67
2022/03/18 08:36:47;;;;;;;13.10;10.02;;;5.70;99.90;;;;;;4934198;29;20658;-68
2022/03/18 08:39:15;;;;;;;11.15;5.57;;;5.80;99.90;;;;;;4932658;29;20272;-68
2022/03/18 08:41:42;;;;;;;6.63;4.90;;;6.00;99.90;;;;;;4926226;29;20794;-69
2022/03/18 08:44:09;;;;;;;5.25;4.25;;;6.30;99.90;;;;;;4934111;29;20214;-68
2022/03/18 08:46:36;;;;;;;8.18;4.80;;;6.50;99.90;;;;;;4934335;29;20556;-68
2022/03/18 08:49:03;;;;;;;7.80;5.05;;;6.70;99.90;;;;;;4934329;29;20763;-69
2022/03/18 08:51:29;;;;;;;8.52;4.30;;;7.00;99.90;;;;;;4933356;29;20340;-69
2022/03/18 08:53:56;;;;;;;6.47;5.55;;;7.20;99.90;;;;;;4934493;29;20245;-69
2022/03/18 08:56:24;;;;;;;11.15;6.03;;;7.40;99.90;;;;;;4933998;29;20281;-68
2022/03/18 08:58:51;;;;;;;11.43;4.93;;;7.70;99.90;;;;;;4933738;29;20262;-68
2022/03/18 09:01:17;;;;;;;5.15;4.28;;;7.90;99.90;;;;;;4933742;29;20296;-68
2022/03/18 09:03:44;;;;;;;8.30;3.55;;;8.00;99.90;;;;;;4933075;29;20327;-68
2022/03/18 09:06:12;;;;;;;4.63;3.85;;;8.20;99.90;;;;;;4933483;29;20212;-69
2022/03/18 09:08:38;;;;;;;6.22;3.80;;;8.30;99.90;;;;;;4934039;29;20297;-69
2022/03/18 09:11:06;;;;;;;9.20;7.18;;;8.30;99.90;;;;;;4933496;29;20230;-69
2022/03/18 09:13:35;;;;;;;15.90;4.97;;;8.50;99.90;;;;;;4934069;29;20301;-69
2022/03/18 09:16:02;;;;;;;5.30;4.88;;;8.60;99.90;;;;;;4933728;29;20229;-68
2022/03/18 09:18:29;;;;;;;5.87;4.40;;;8.70;99.90;;;;;;4933812;29;20297;-69
2022/03/18 09:20:55;;;;;;;6.37;4.10;;;8.90;99.90;;;;;;4932646;29;21013;-69
2022/03/18 09:23:22;;;;;;;6.93;3.83;;;9.00;99.90;;;;;;4933978;29;20889;-68
2022/03/18 09:25:49;;;;;;;6.83;4.33;;;9.10;99.90;;;;;;4933659;29;20476;-69
2022/03/18 09:28:16;;;;;;;3.97;3.57;;;9.20;99.90;;;;;;4933625;29;20469;-68
2022/03/18 09:30:44;;;;;;;4.47;4.10;;;9.40;99.90;;;;;;4932589;29;20485;-69
2022/03/18 09:33:11;;;;;;;6.87;4.17;;;9.50;99.90;;;;;;4933772;29;20529;-68
2022/03/18 09:35:39;;;;;;;5.47;5.00;;;9.60;99.90;;;;;;4933345;29;20473;-68
2022/03/18 09:38:05;;;;;;;4.10;3.80;;;9.60;99.90;;;;;;4934203;29;20461;-70
2022/03/18 09:40:32;;;;;;;5.60;3.27;;;9.70;99.90;;;;;;4932975;29;20523;-68
2022/03/18 09:43:01;;;;;;;3.27;2.73;;;9.70;99.90;;;;;;4933859;29;20545;-68
2022/03/18 09:45:31;;;;;;;3.63;3.27;;;9.70;99.90;;;;;;4932883;29;20469;-68
2022/03/18 09:48:00;;;;;;;4.53;3.67;;;9.80;99.90;;;;;;4934084;29;20507;-68
2022/03/18 09:50:28;;;;;;;6.50;3.50;;;9.90;99.90;;;;;;4932480;29;20469;-67
2022/03/18 09:52:55;;;;;;;9.60;3.60;;;10.00;99.90;;;;;;4933836;29;20811;-68
2022/03/18 09:55:22;;;;;;;3.50;2.97;;;10.10;99.90;;;;;;4933833;29;20470;-67
2022/03/18 09:57:49;;;;;;;9.00;3.33;;;10.00;99.90;;;;;;4933264;29;20493;-68
2022/03/18 10:00:16;;;;;;;9.00;3.77;;;10.00;99.90;;;;;;4932270;29;21190;-67
2022/03/18 10:02:43;;;;;;;6.37;3.97;;;10.00;99.90;;;;;;4925093;29;20472;-69
2022/03/18 10:05:13;;;;;;;7.00;4.03;;;9.90;99.90;;;;;;4932773;29;20475;-68
2022/03/18 10:07:41;;;;;;;3.95;3.30;;;9.90;99.90;;;;;;4933580;29;20721;-69
2022/03/18 10:10:15;;;;;;;4.93;4.28;;;9.80;99.90;;;;;;4932864;29;20206;-71
2022/03/18 10:12:45;;;;;;;6.25;4.47;;;9.70;99.90;;;;;;4933476;29;20244;-70
2022/03/18 10:15:15;;;;;;;4.07;3.78;;;9.70;99.90;;;;;;4936168;29;20205;-69
2022/03/18 10:17:47;;;;;;;8.85;4.55;;;9.70;99.90;;;;;;4937691;29;20237;-68
2022/03/18 10:20:30;;;;;;;4.90;4.45;;;9.60;99.90;;;;;;4936140;29;20241;-68
2022/03/18 10:22:58;;;;;;;7.75;4.38;;;9.60;99.90;;;;;;4936999;29;20261;-68
2022/03/18 10:25:36;;;;;;;7.00;4.25;;;9.60;99.90;;;;;;4936793;29;20304;-68
2022/03/18 10:28:04;;;;;;;12.02;5.78;;;9.60;99.90;;;;;;4937028;29;20253;-68
2022/03/18 10:30:31;;;;;;;8.48;5.15;;;9.60;99.90;;;;;;4935814;29;20261;-67
2022/03/18 10:32:57;;;;;;;13.45;6.10;;;9.60;99.90;;;;;;4937015;29;20210;-68
2022/03/18 10:38:28;;;;;;;9.77;4.97;;;9.60;99.90;;;;;;4937058;29;20237;-68
2022/03/18 10:40:55;;;;;;;4.32;4.03;;;9.70;99.90;;;;;;4934104;29;20606;-68
2022/03/18 10:43:22;;;;;;;5.97;3.78;;;9.70;99.90;;;;;;4936669;29;20546;-68
2022/03/18 10:46:00;;;;;;;7.78;4.55;;;9.70;99.90;;;;;;4936028;29;20210;-68
2022/03/18 10:48:27;;;;;;;11.48;7.18;;;9.80;99.90;;;;;;4937103;29;20308;-68
2022/03/18 10:51:04;;;;;;;10.85;4.70;;;9.80;99.90;;;;;;4935666;29;20257;-68
2022/03/18 10:53:31;;;;;;;7.18;4.53;;;9.80;99.90;;;;;;4936647;29;20209;-68
2022/03/18 10:56:01;;;;;;;4.28;4.00;;;9.80;99.90;;;;;;4936593;29;20304;-68
2022/03/18 10:58:30;;;;;;;9.68;4.47;;;9.80;99.90;;;;;;4936388;29;20252;-69
2022/03/18 11:00:58;;;;;;;7.78;4.85;;;9.90;99.90;;;;;;4935275;29;20247;-68
2022/03/18 11:03:25;;;;;;;8.27;4.47;;;9.90;99.90;;;;;;4936317;29;20212;-68
2022/03/18 11:05:52;;;;;;;4.78;3.83;;;10.00;99.90;;;;;;4935819;29;20292;-68
2022/03/18 11:08:22;;;;;;;6.60;4.40;;;10.10;99.90;;;;;;4936538;29;20212;-68
2022/03/18 11:11:15;;;;;;;4.75;3.20;;;10.10;99.90;;;;;;4935779;29;20257;-69
2022/03/18 11:13:56;;;;;;;11.18;4.13;;;10.10;99.90;;;;;;4935842;29;20786;-69
2022/03/18 11:16:26;;;;;;;3.70;3.35;;;10.10;99.90;;;;;;4936571;29;20213;-69
2022/03/18 11:18:53;;;;;;;8.05;4.90;;;10.20;99.90;;;;;;4936061;29;20217;-69
2022/03/18 11:21:21;;;;;;;7.75;4.28;;;10.30;99.90;;;;;;4934980;29;20326;-68
2022/03/18 11:23:50;;;;;;;10.88;5.75;;;10.30;99.90;;;;;;4936450;29;20255;-70
2022/03/18 11:26:19;;;;;;;5.20;3.33;;;10.40;99.90;;;;;;4935264;29;20217;-68
2022/03/18 11:28:46;;;;;;;8.07;4.75;;;10.50;99.90;;;;;;4931892;29;20218;-70
2022/03/18 11:31:18;;;;;;;9.48;4.70;;;10.50;99.90;;;;;;4931666;29;20238;-69
2022/03/18 11:34:09;;;;;;;16.27;7.05;;;10.60;99.90;;;;;;4917462;29;20301;-69
2022/03/18 11:36:36;;;;;;;11.52;4.35;;;10.60;99.90;;;;;;4916339;29;20211;-69
2022/03/18 11:39:07;;;;;;;6.28;4.20;;;10.70;99.90;;;;;;4916702;29;20218;-69
2022/03/18 11:42:05;;;;;;;4.00;3.60;;;10.80;99.90;;;;;;4916173;29;20639;-68
2022/03/18 11:44:53;;;;;;;9.32;4.72;;;10.80;99.90;;;;;;4916294;29;20217;-68
2022/03/18 11:47:38;;;;;;;4.68;4.10;;;10.90;99.90;;;;;;4916684;29;20202;-68
2022/03/18 11:50:36;;;;;;;4.57;3.60;;;10.90;99.90;;;;;;4915377;29;20266;-69
2022/03/18 11:53:03;;;;;;;4.20;3.88;;;11.00;99.90;;;;;;4916789;29;20309;-68
2022/03/18 11:55:31;;;;;;;4.72;4.22;;;11.00;99.90;;;;;;4916422;29;20690;-68
2022/03/18 11:57:58;;;;;;;4.63;3.25;;;11.10;99.90;;;;;;4916437;29;20624;-68
2022/03/18 12:00:42;;;;;;;3.17;2.72;;;11.20;99.90;;;;;;4914971;29;20210;-70
2022/03/18 12:03:10;;;;;;;8.35;4.18;;;11.30;99.90;;;;;;4923951;29;20237;-68
2022/03/18 12:05:52;;;;;;;5.22;4.80;;;11.30;99.90;;;;;;4934599;29;20205;-69
2022/03/18 12:08:19;;;;;;;8.75;4.00;;;11.40;99.90;;;;;;4935430;29;20297;-68
2022/03/18 12:10:47;;;;;;;5.28;4.35;;;11.40;99.90;;;;;;4934610;29;20237;-68
2022/03/18 12:13:14;;;;;;;15.37;9.60;;;11.40;99.90;;;;;;4935165;29;20214;-69
2022/03/18 12:15:42;;;;;;;12.10;7.70;;;11.50;99.90;;;;;;4934774;29;20485;-68
2022/03/18 12:18:08;;;;;;;4.80;4.25;;;11.60;99.90;;;;;;4934797;29;20549;-68
2022/03/18 12:20:38;;;;;;;9.55;4.30;;;11.60;99.90;;;;;;4934299;29;20277;-68
2022/03/18 12:23:06;;;;;;;6.53;4.40;;;11.60;99.90;;;;;;4937153;29;20206;-69
2022/03/18 12:25:36;;;;;;;5.75;3.97;;;11.60;99.90;;;;;;4941693;29;20561;-70
2022/03/18 12:28:05;;;;;;;6.03;4.23;;;11.70;99.90;;;;;;4942361;29;20206;-69
2022/03/18 12:30:32;;;;;;;7.93;4.60;;;11.70;99.90;;;;;;4935742;29;20489;-69
2022/03/18 12:33:00;;;;;;;4.77;4.27;;;11.70;99.90;;;;;;4934621;29;20469;-70
2022/03/18 12:35:30;;;;;;;8.60;4.03;;;11.70;99.90;;;;;;4934128;29;20532;-68
2022/03/18 12:38:04;;;;;;;7.53;4.00;;;11.70;99.90;;;;;;4934350;29;20496;-69
2022/03/18 12:40:31;;;;;;;7.23;4.00;;;11.70;99.90;;;;;;4931476;29;20524;-69
2022/03/18 12:43:02;;;;;;;7.03;4.90;;;11.80;99.90;;;;;;4934303;29;21055;-68
2022/03/18 12:45:33;;;;;;;6.30;3.77;;;11.80;99.90;;;;;;4934488;29;20593;-68
2022/03/18 12:48:02;;;;;;;4.50;4.10;;;11.80;99.90;;;;;;4934543;29;20806;-69
2022/03/18 12:50:31;;;;;;;8.10;4.00;;;11.90;99.90;;;;;;4933186;29;20966;-68
2022/03/18 12:52:58;;;;;;;6.13;3.73;;;12.00;99.90;;;;;;4934208;29;20524;-67
2022/03/18 12:55:25;;;;;;;4.50;4.10;;;12.10;99.90;;;;;;4934438;29;20477;-67
2022/03/18 12:57:52;;;;;;;7.33;5.87;;;12.20;99.90;;;;;;4934693;29;20580;-67
2022/03/18 13:00:21;;;;;;;15.07;8.00;;;12.20;99.90;;;;;;4933426;29;20474;-69
2022/03/18 13:02:51;;;;;;;5.27;4.87;;;12.10;99.90;;;;;;4934641;29;21011;-68
2022/03/18 13:05:19;;;;;;;15.80;6.83;;;12.10;99.90;;;;;;4933861;29;20469;-68
2022/03/18 13:07:50;;;;;;;5.90;5.07;;;12.20;99.90;;;;;;4934487;29;20548;-69
2022/03/18 13:10:21;;;;;;;5.73;4.50;;;12.20;99.90;;;;;;4933978;29;20842;-69
2022/03/18 13:12:48;;;;;;;5.67;4.50;;;12.30;99.90;;;;;;4934691;29;20798;-69
2022/03/18 13:15:16;;;;;;;5.97;5.37;;;12.30;99.90;;;;;;4933904;29;20470;-69
2022/03/18 13:17:45;;;;;;;4.53;4.13;;;12.20;99.90;;;;;;4934423;29;20489;-69
2022/03/18 13:20:24;;;;;;;3.50;3.30;;;12.20;99.90;;;;;;4933298;29;20908;-69
2022/03/18 13:22:52;;;;;;;3.93;3.57;;;12.20;99.90;;;;;;4934298;29;20572;-69
2022/03/18 13:25:20;;;;;;;6.23;4.07;;;12.20;99.90;;;;;;4934265;29;20556;-69
2022/03/18 13:27:47;;;;;;;4.80;4.30;;;12.30;99.90;;;;;;4934745;29;20556;-70
2022/03/18 13:33:00;;;;;;;3.83;3.03;;;12.40;99.90;;;;;;4934110;29;20453;-69
2022/03/18 13:35:28;;;;;;;2.37;2.27;;;12.40;99.90;;;;;;4933589;29;20644;-69
2022/03/18 13:38:09;;;;;;;4.20;2.83;;;12.40;99.90;;;;;;4934076;29;20482;-69
2022/03/18 13:40:37;;;;;;;4.13;3.40;;;12.40;99.90;;;;;;4933271;29;20481;-68
2022/03/18 13:43:07;;;;;;;4.47;3.33;;;12.40;99.90;;;;;;4933936;29;20465;-69
2022/03/18 13:45:35;;;;;;;4.37;3.93;;;12.50;99.90;;;;;;4933591;29;20540;-69
2022/03/18 13:48:03;;;;;;;6.97;4.10;;;12.50;99.90;;;;;;4934102;29;20465;-69
2022/03/18 13:50:48;;;;;;;7.90;4.23;;;12.50;99.90;;;;;;4932361;29;20466;-69
2022/03/18 13:53:19;;;;;;;4.27;3.77;;;12.50;99.90;;;;;;4933540;29;20552;-70
2022/03/18 13:55:46;;;;;;;3.10;3.00;;;12.40;99.90;;;;;;4933343;29;20465;-69
2022/03/18 13:58:24;;;;;;;4.13;3.73;;;12.40;99.90;;;;;;4933631;29;20604;-70
2022/03/18 14:00:51;;;;;;;5.07;4.67;;;12.40;99.90;;;;;;4933077;29;20587;-68
2022/03/18 14:03:17;;;;;;;4.77;3.70;;;12.50;99.90;;;;;;4925430;29;20505;-70
2022/03/18 14:05:46;;;;;;;5.17;4.77;;;12.60;99.90;;;;;;4932551;29;20470;-69
2022/03/18 14:08:27;;;;;;;8.53;4.50;;;12.70;99.90;;;;;;4933365;29;20987;-68
2022/03/18 14:10:57;;;;;;;8.90;4.57;;;12.70;99.90;;;;;;4932851;29;20481;-69
2022/03/18 14:13:27;;;;;;;4.77;3.60;;;12.80;99.90;;;;;;4933126;29;20469;-70
2022/03/18 14:15:54;;;;;;;7.57;4.60;;;12.80;99.90;;;;;;4932654;29;20474;-69
2022/03/18 14:18:21;;;;;;;6.30;4.30;;;12.80;99.90;;;;;;4932697;29;20501;-69
2022/03/18 14:21:00;;;;;;;8.97;4.17;;;12.90;99.90;;;;;;4932093;29;20489;-70
2022/03/18 14:23:29;;;;;;;8.03;4.80;;;13.00;99.90;;;;;;4933276;29;20903;-68
2022/03/18 14:25:57;;;;;;;3.90;3.50;;;13.10;99.90;;;;;;4932498;29;20904;-68
2022/03/18 14:28:25;;;;;;;4.93;4.23;;;13.20;99.90;;;;;;4932987;29;20497;-68
2022/03/18 14:30:52;;;;;;;9.57;4.67;;;13.30;99.90;;;;;;4931660;29;20520;-69
2022/03/18 14:33:21;;;;;;;4.70;4.30;;;13.40;99.90;;;;;;4933157;29;20478;-68
2022/03/18 14:35:49;;;;;;;5.40;5.00;;;13.50;99.90;;;;;;4932667;29;20469;-68
2022/03/18 14:38:18;;;;;;;5.40;4.53;;;13.40;99.90;;;;;;4932852;29;21069;-68
2022/03/18 14:40:45;;;;;;;6.50;4.97;;;13.40;99.90;;;;;;4932344;29;20493;-69
2022/03/18 14:43:11;;;;;;;6.13;4.77;;;13.40;99.90;;;;;;4933111;29;20473;-68
2022/03/18 14:45:38;;;;;;;9.70;5.00;;;13.40;99.90;;;;;;4932430;29;20553;-68
2022/03/18 14:48:06;;;;;;;10.40;4.87;;;13.50;99.90;;;;;;4933152;29;20470;-68
2022/03/18 14:50:38;;;;;;;7.90;5.87;;;13.40;99.90;;;;;;4930936;29;20465;-69
2022/03/18 14:53:05;;;;;;;9.20;5.80;;;13.40;99.90;;;;;;4928557;29;20970;-68
2022/03/18 14:58:18;;;;;;;8.27;5.80;;;13.40;99.90;;;;;;4933170;29;20491;-69
2022/03/18 15:00:44;;;;;;;7.40;5.63;;;13.40;99.90;;;;;;4933719;29;20544;-69
2022/03/18 15:03:11;;;;;;;7.70;7.00;;;13.30;99.90;;;;;;4936347;29;20846;-67
2022/03/18 15:05:38;;;;;;;7.40;5.40;;;13.30;99.90;;;;;;4935725;29;20480;-67
2022/03/18 15:08:05;;;;;;;8.57;5.67;;;13.30;99.90;;;;;;4935900;29;20465;-68
2022/03/18 15:10:35;;;;;;;5.27;4.77;;;13.30;99.90;;;;;;4935245;29;20923;-67
2022/03/18 15:13:07;;;;;;;5.93;5.43;;;13.20;99.90;;;;;;4936456;29;20469;-67
2022/03/18 15:15:34;;;;;;;5.83;5.30;;;13.20;99.90;;;;;;4935744;29;20473;-68
2022/03/18 15:18:01;;;;;;;5.73;5.23;;;13.10;99.90;;;;;;4935912;29;20493;-68
2022/03/18 15:20:28;;;;;;;8.20;5.50;;;13.10;99.90;;;;;;4934669;29;20477;-68
2022/03/18 15:22:55;;;;;;;12.97;5.97;;;13.20;99.90;;;;;;4935850;29;20568;-68
2022/03/18 15:25:23;;;;;;;5.63;5.23;;;13.20;99.90;;;;;;4935978;29;20488;-68
2022/03/18 15:27:51;;;;;;;5.33;4.93;;;13.20;99.90;;;;;;4935939;29;20462;-69
2022/03/18 15:30:17;;;;;;;6.57;5.97;;;13.20;99.90;;;;;;4929107;29;20517;-69
2022/03/18 15:32:44;;;;;;;8.27;5.97;;;13.20;99.90;;;;;;4935841;29;20788;-68
2022/03/18 15:35:11;;;;;;;5.80;5.20;;;13.10;99.90;;;;;;4935220;29;20465;-68
2022/03/18 15:37:38;;;;;;;11.70;6.27;;;13.10;99.90;;;;;;4935411;29;20484;-69
2022/03/18 15:40:06;;;;;;;8.93;5.27;;;13.10;99.90;;;;;;4934750;29;20466;-68
2022/03/18 15:42:33;;;;;;;5.83;5.27;;;13.00;99.90;;;;;;4935406;29;20489;-68
2022/03/18 15:45:01;;;;;;;4.90;4.30;;;12.90;99.90;;;;;;4935252;29;20476;-69
2022/03/18 15:47:28;;;;;;;9.13;4.77;;;12.90;99.90;;;;;;4935451;29;20473;-68
2022/03/18 15:49:55;;;;;;;5.50;4.93;;;12.90;99.90;;;;;;4934207;29;20473;-68
2022/03/18 15:52:22;;;;;;;5.20;4.03;;;12.90;99.90;;;;;;4935503;29;20489;-68
2022/03/18 15:54:48;;;;;;;6.30;5.70;;;13.00;99.90;;;;;;4935474;29;20473;-68
2022/03/18 15:57:15;;;;;;;5.40;4.60;;;13.00;99.90;;;;;;4935345;29;20556;-68
2022/03/18 15:59:42;;;;;;;8.10;4.53;;;13.00;99.90;;;;;;4934278;29;20604;-68
2022/03/18 16:02:10;;;;;;;5.33;4.80;;;13.00;99.90;;;;;;4935019;29;20548;-68
2022/03/18 16:04:37;;;;;;;9.83;4.97;;;13.00;99.90;;;;;;4934541;29;21085;-68
2022/03/18 16:07:04;;;;;;;4.37;4.00;;;12.90;99.90;;;;;;4935772;29;20508;-68
2022/03/18 16:09:33;;;;;;;5.23;4.73;;;12.90;99.90;;;;;;4934609;29;20488;-68
2022/03/18 16:12:01;;;;;;;5.10;3.90;;;12.90;99.90;;;;;;4934422;29;20489;-68
2022/03/18 16:14:28;;;;;;;5.13;3.83;;;12.90;99.90;;;;;;4934680;29;20916;-68
2022/03/18 16:16:55;;;;;;;5.63;5.13;;;12.80;99.90;;;;;;4935331;29;20986;-68
2022/03/18 16:19:23;;;;;;;5.27;4.87;;;12.70;99.90;;;;;;4937490;29;20501;-68
2022/03/18 16:21:50;;;;;;;4.93;4.10;;;12.60;99.90;;;;;;4941141;29;20489;-69
2022/03/18 16:24:17;;;;;;;5.87;4.07;;;12.60;99.90;;;;;;4941805;29;20473;-69
2022/03/18 16:26:57;;;;;;;5.97;4.70;;;12.50;99.90;;;;;;4934894;29;20520;-68
2022/03/18 16:29:24;;;;;;;3.80;3.57;;;12.50;99.90;;;;;;4934722;29;20465;-68
2022/03/18 16:31:51;;;;;;;6.87;3.80;;;12.40;99.90;;;;;;4934240;29;20871;-69
2022/03/18 16:34:19;;;;;;;5.53;4.57;;;12.40;99.90;;;;;;4934640;29;20548;-69
2022/03/18 16:36:47;;;;;;;6.57;3.80;;;12.30;99.90;;;;;;4934184;29;20304;-68
2022/03/18 16:39:14;;;;;;;4.40;4.07;;;12.30;99.90;;;;;;4934452;29;20497;-70
2022/03/18 16:41:41;;;;;;;3.63;3.30;;;12.20;99.90;;;;;;4933763;29;20257;-69
2022/03/18 16:44:08;;;;;;;4.27;3.60;;;12.30;99.90;;;;;;4934096;29;20537;-69
2022/03/18 16:49:28;;;;;;;6.03;4.50;;;12.20;99.90;;;;;;4934231;29;20670;-70
2022/03/18 16:51:57;;;;;;;5.93;4.80;;;12.10;99.90;;;;;;4928949;29;20297;-69
2022/03/18 16:54:25;;;;;;;5.80;5.23;;;12.00;99.90;;;;;;4933771;29;20553;-69
2022/03/18 16:56:53;;;;;;;11.93;4.80;;;12.00;99.90;;;;;;4934295;29;20465;-68
2022/03/18 16:59:20;;;;;;;3.70;3.50;;;12.00;99.90;;;;;;4933663;29;20233;-70
2022/03/18 17:01:48;;;;;;;4.32;4.00;;;11.90;99.90;;;;;;4933550;29;20234;-68
2022/03/18 17:04:16;;;;;;;5.47;4.97;;;11.90;99.90;;;;;;4934132;29;20210;-69
2022/03/18 17:06:43;;;;;;;6.37;5.30;;;11.80;99.90;;;;;;4933643;29;20301;-68
2022/03/18 17:09:13;;;;;;;5.20;4.80;;;11.60;99.90;;;;;;4933629;29;20469;-68
2022/03/18 17:11:40;;;;;;;6.60;4.28;;;11.60;99.90;;;;;;4933612;29;20236;-69
2022/03/18 17:14:08;;;;;;;6.68;4.90;;;11.50;99.90;;;;;;4933459;29;20214;-68
2022/03/18 17:16:35;;;;;;;9.23;5.15;;;11.40;99.90;;;;;;4933676;29;20259;-68
2022/03/18 17:19:02;;;;;;;5.75;5.25;;;11.30;99.90;;;;;;4933374;29;20317;-68
2022/03/18 17:21:29;;;;;;;6.05;5.13;;;11.20;99.90;;;;;;4932500;29;20264;-69
2022/03/18 17:23:56;;;;;;;6.95;6.25;;;11.10;99.90;;;;;;4932781;29;20232;-68
2022/03/18 17:26:24;;;;;;;10.10;6.22;;;11.00;99.90;;;;;;4933705;29;20210;-69
2022/03/18 17:28:51;;;;;;;7.63;5.40;;;10.90;99.90;;;;;;4930889;29;20586;-68
2022/03/18 17:31:18;;;;;;;7.18;5.78;;;10.80;99.90;;;;;;4930020;29;20226;-68
2022/03/18 17:33:45;;;;;;;8.68;5.85;;;10.70;99.90;;;;;;4933573;29;20214;-68
2022/03/18 17:36:13;;;;;;;8.20;5.60;;;10.60;99.90;;;;;;4932958;29;20269;-69
2022/03/18 17:38:40;;;;;;;5.70;5.20;;;10.50;99.90;;;;;;4933206;29;20686;-68
2022/03/18 17:41:08;;;;;;;5.97;5.57;;;10.40;99.90;;;;;;4933072;29;20248;-68
2022/03/18 17:43:36;;;;;;;11.55;6.72;;;10.40;99.90;;;;;;4933737;29;20280;-67
2022/03/18 17:46:08;;;;;;;7.13;6.45;;;10.30;99.90;;;;;;4933808;29;20551;-67
2022/03/18 17:48:35;;;;;;;5.95;5.45;;;10.20;99.90;;;;;;4934001;29;20202;-68
2022/03/18 17:51:02;;;;;;;8.43;6.20;;;10.20;99.90;;;;;;4932860;29;20317;-67
2022/03/18 17:53:30;;;;;;;9.52;6.75;;;10.10;99.90;;;;;;4933204;29;20628;-67
2022/03/18 17:55:57;;;;;;;7.95;7.03;;;10.00;99.90;;;;;;4933556;29;20221;-69
2022/03/18 17:58:24;;;;;;;8.15;7.10;;;10.00;99.90;;;;;;4933378;29;20233;-68
2022/03/18 18:00:52;;;;;;;14.10;7.03;;;9.90;99.90;;;;;;4931768;29;20249;-69
2022/03/18 18:03:19;;;;;;;7.72;7.10;;;9.90;99.90;;;;;;4933080;29;20220;-69
2022/03/18 18:05:46;;;;;;;12.27;7.57;;;9.90;99.90;;;;;;4933033;29;20214;-68
2022/03/18 18:08:16;;;;;;;10.80;9.60;;;9.90;99.90;;;;;;4933325;29;20213;-69
2022/03/18 18:10:43;;;;;;;10.25;9.15;;;9.90;99.90;;;;;;4932612;29;20640;-69
2022/03/18 18:13:10;;;;;;;15.43;9.63;;;9.90;99.90;;;;;;4933285;29;20670;-69
2022/03/18 18:15:36;;;;;;;10.65;7.30;;;9.90;99.90;;;;;;4932499;29;20248;-68
2022/03/18 18:18:04;;;;;;;8.27;7.43;;;10.10;99.90;;;;;;4931373;29;20222;-68